createdAt,value
2018-12-17T00:00:55.261Z,5.57
2018-12-17T00:03:24.256Z,6.67
2018-12-17T00:05:53.925Z,5.90
2018-12-17T00:08:22.915Z,5.80
2018-12-17T00:10:51.942Z,6.10
2018-12-17T00:13:21.307Z,5.53
2018-12-17T00:15:50.462Z,5.93
2018-12-17T00:18:19.116Z,6.20
2018-12-17T00:20:47.796Z,6.40
2018-12-17T00:23:16.419Z,6.73
2018-12-17T00:25:45.029Z,6.70
2018-12-17T00:28:13.873Z,6.80
2018-12-17T00:30:42.868Z,7.00
2018-12-17T00:33:11.823Z,7.10
2018-12-17T00:35:40.871Z,5.33
2018-12-17T00:38:10.074Z,5.53
2018-12-17T00:40:39.032Z,7.00
2018-12-17T00:43:08.000Z,5.97
2018-12-17T00:45:37.386Z,5.60
2018-12-17T00:48:06.422Z,6.40
2018-12-17T00:50:35.441Z,6.37
2018-12-17T00:53:04.130Z,6.13
2018-12-17T00:55:33.026Z,6.00
2018-12-17T00:58:02.216Z,6.23
2018-12-17T01:00:31.239Z,5.77
2018-12-17T01:03:01.105Z,6.53
2018-12-17T01:05:30.285Z,5.97
2018-12-17T01:07:59.605Z,6.70
2018-12-17T01:10:28.279Z,6.27
2018-12-17T01:12:57.180Z,6.20
2018-12-17T01:15:25.869Z,6.03
2018-12-17T01:17:54.756Z,5.90
2018-12-17T01:20:23.796Z,6.40
2018-12-17T01:22:53.046Z,6.60
2018-12-17T01:25:22.095Z,5.87
2018-12-17T01:27:51.118Z,6.67
2018-12-17T01:30:20.520Z,7.23
2018-12-17T01:32:49.477Z,6.77
2018-12-17T01:35:18.137Z,6.40
2018-12-17T01:37:46.870Z,6.57
2018-12-17T01:40:15.767Z,6.47
2018-12-17T01:42:44.737Z,6.20
2018-12-17T01:45:13.920Z,6.83
2018-12-17T01:47:42.894Z,6.30
2018-12-17T01:50:11.873Z,6.43
2018-12-17T01:52:47.624Z,6.37
2018-12-17T01:55:16.669Z,6.07
2018-12-17T01:57:45.319Z,6.80
2018-12-17T02:00:14.872Z,6.27
2018-12-17T02:02:43.876Z,7.17
2018-12-17T02:05:12.887Z,7.43
2018-12-17T02:07:42.208Z,8.00
2018-12-17T02:10:11.041Z,6.30
2018-12-17T02:12:39.684Z,6.93
2018-12-17T02:15:08.730Z,6.57
2018-12-17T02:17:37.726Z,7.23
2018-12-17T02:20:06.416Z,7.60
2018-12-17T02:22:35.404Z,7.47
2018-12-17T02:25:04.319Z,7.93
2018-12-17T02:27:33.213Z,7.13
2018-12-17T02:30:02.507Z,7.20
2018-12-17T02:32:31.526Z,8.17
2018-12-17T02:35:00.532Z,6.70
2018-12-17T02:37:29.240Z,8.00
2018-12-17T02:39:58.442Z,8.63
2018-12-17T02:42:27.139Z,7.67
2018-12-17T02:44:56.061Z,7.93
2018-12-17T02:47:25.391Z,7.50
2018-12-17T02:49:54.059Z,8.47
2018-12-17T02:52:22.979Z,7.63
2018-12-17T02:54:51.961Z,7.97
2018-12-17T02:57:20.768Z,8.27
2018-12-17T02:59:49.677Z,7.93
2018-12-17T03:02:18.714Z,7.57
2018-12-17T03:04:47.803Z,7.40
2018-12-17T03:07:16.530Z,7.50
2018-12-17T03:09:45.103Z,6.60
2018-12-17T03:12:14.345Z,6.20
2018-12-17T03:14:43.662Z,6.17
2018-12-17T03:17:12.762Z,6.50
2018-12-17T03:19:41.443Z,6.40
2018-12-17T03:22:10.387Z,6.33
2018-12-17T03:24:39.441Z,6.67
2018-12-17T03:27:08.458Z,5.87
2018-12-17T03:29:37.144Z,6.17
2018-12-17T03:32:06.067Z,6.63
2018-12-17T03:34:35.107Z,6.83
2018-12-17T03:37:04.109Z,6.47
2018-12-17T03:39:33.103Z,6.50
2018-12-17T03:42:02.337Z,6.30
2018-12-17T03:44:30.987Z,6.37
2018-12-17T03:46:59.681Z,6.57
2018-12-17T03:49:28.652Z,6.30
2018-12-17T03:51:57.660Z,6.77
2018-12-17T03:54:26.754Z,7.27
2018-12-17T03:56:55.656Z,7.03
2018-12-17T03:59:24.643Z,7.67
2018-12-17T04:01:53.661Z,8.63
2018-12-17T04:04:22.678Z,8.63
2018-12-17T04:06:51.360Z,11.17
2018-12-17T04:09:20.244Z,12.20
2018-12-17T04:11:49.553Z,11.20
2018-12-17T04:14:18.250Z,12.13
2018-12-17T04:16:47.181Z,13.77
2018-12-17T04:19:16.531Z,14.53
2018-12-17T04:21:45.525Z,13.67
2018-12-17T04:24:14.532Z,13.57
2018-12-17T04:26:43.511Z,16.97
2018-12-17T04:29:12.614Z,20.68
2018-12-17T04:31:41.613Z,15.07
2018-12-17T04:34:10.628Z,14.57
2018-12-17T04:36:39.666Z,17.60
2018-12-17T04:39:08.333Z,14.40
2018-12-17T04:41:37.269Z,14.13
2018-12-17T04:44:06.252Z,12.07
2018-12-17T04:46:35.256Z,13.43
2018-12-17T04:49:03.914Z,13.30
2018-12-17T04:51:33.182Z,14.10
2018-12-17T04:54:02.003Z,13.13
2018-12-17T04:56:30.889Z,14.17
2018-12-17T04:58:59.954Z,16.33
2018-12-17T05:01:28.630Z,13.77
2018-12-17T05:03:57.200Z,12.27
2018-12-17T05:06:26.108Z,13.70
2018-12-17T05:08:55.108Z,15.93
2018-12-17T05:11:24.121Z,16.10
2018-12-17T05:13:53.145Z,13.27
2018-12-17T05:16:22.221Z,15.20
2018-12-17T05:18:51.235Z,11.97
2018-12-17T05:21:20.542Z,12.80
2018-12-17T05:23:49.577Z,14.23
2018-12-17T05:26:19.045Z,11.77
2018-12-17T05:28:48.186Z,11.93
2018-12-17T05:31:17.168Z,13.37
2018-12-17T05:33:46.187Z,13.20
2018-12-17T05:36:15.172Z,12.67
2018-12-17T05:38:44.192Z,12.87
2018-12-17T05:41:13.132Z,14.17
2018-12-17T05:43:42.335Z,11.97
2018-12-17T05:46:11.309Z,14.30
2018-12-17T05:48:40.300Z,12.63
2018-12-17T05:51:08.972Z,12.93
2018-12-17T05:53:38.084Z,9.73
2018-12-17T05:56:07.161Z,10.03
2018-12-17T05:58:36.152Z,11.63
2018-12-17T06:01:04.951Z,10.97
2018-12-17T06:03:33.866Z,9.17
2018-12-17T06:06:02.984Z,9.47
2018-12-17T06:08:32.056Z,9.13
2018-12-17T06:11:01.034Z,9.73
2018-12-17T06:13:29.748Z,9.53
2018-12-17T06:15:58.353Z,10.07
2018-12-17T06:18:27.263Z,9.30
2018-12-17T06:20:56.619Z,8.60
2018-12-17T06:23:25.621Z,9.20
2018-12-17T06:25:54.609Z,9.33
2018-12-17T06:28:23.698Z,10.13
2018-12-17T06:30:52.389Z,9.80
2018-12-17T06:33:21.334Z,10.00
2018-12-17T06:35:50.321Z,9.07
2018-12-17T06:38:19.449Z,7.87
2018-12-17T06:40:48.413Z,8.83
2018-12-17T06:43:17.441Z,9.50
2018-12-17T06:45:46.224Z,8.90
2018-12-17T06:48:17.262Z,8.60
2018-12-17T06:50:45.874Z,8.70
2018-12-17T06:53:14.873Z,10.77
2018-12-17T06:55:43.735Z,11.20
2018-12-17T06:58:13.340Z,9.87
2018-12-17T07:00:42.353Z,9.10
2018-12-17T07:03:11.342Z,8.90
2018-12-17T07:05:40.611Z,10.03
2018-12-17T07:08:09.358Z,9.43
2018-12-17T07:10:38.237Z,9.43
2018-12-17T07:13:07.260Z,8.40
2018-12-17T07:15:36.231Z,7.80
2018-12-17T07:18:05.362Z,7.10
2018-12-17T07:20:34.329Z,7.10
2018-12-17T07:23:03.621Z,8.03
2018-12-17T07:25:32.280Z,9.13
2018-12-17T07:28:01.180Z,7.77
2018-12-17T07:30:30.173Z,8.63
2018-12-17T07:32:59.425Z,8.33
2018-12-17T07:35:28.489Z,7.90
2018-12-17T07:37:57.859Z,8.43
2018-12-17T07:40:27.061Z,8.87
2018-12-17T07:42:55.857Z,9.73
2018-12-17T07:45:24.741Z,8.80
2018-12-17T07:47:53.713Z,7.40
2018-12-17T07:50:22.672Z,8.10
2018-12-17T07:52:51.730Z,7.90
2018-12-17T07:55:20.804Z,8.33
2018-12-17T07:57:49.923Z,8.40
2018-12-17T08:00:19.225Z,9.63
2018-12-17T08:02:48.217Z,10.67
2018-12-17T08:05:17.180Z,9.07
2018-12-17T08:07:45.952Z,10.17
2018-12-17T08:10:15.478Z,9.63
2018-12-17T08:12:44.201Z,9.83
2018-12-17T08:15:14.018Z,8.27
2018-12-17T08:17:42.877Z,8.87
2018-12-17T08:20:11.778Z,8.47
2018-12-17T08:22:41.494Z,7.60
2018-12-17T08:25:10.293Z,8.37
2018-12-17T08:27:38.876Z,6.87
2018-12-17T08:30:07.837Z,7.70
2018-12-17T08:32:37.097Z,9.00
2018-12-17T08:35:06.024Z,8.27
2018-12-17T08:37:34.932Z,8.53
2018-12-17T08:40:04.707Z,9.87
2018-12-17T08:42:33.770Z,8.53
2018-12-17T08:45:02.747Z,8.07
2018-12-17T08:47:31.720Z,7.07
2018-12-17T08:50:00.717Z,8.63
2018-12-17T08:52:29.388Z,8.10
2018-12-17T08:54:58.898Z,7.90
2018-12-17T08:57:27.889Z,7.57
2018-12-17T08:59:56.584Z,8.20
2018-12-17T09:02:25.156Z,7.43
2018-12-17T09:04:54.082Z,7.27
2018-12-17T09:07:23.124Z,7.30
2018-12-17T09:09:52.114Z,6.90
2018-12-17T09:12:21.091Z,7.53
2018-12-17T09:14:50.108Z,7.63
2018-12-17T09:17:18.771Z,6.33
2018-12-17T09:19:47.366Z,7.67
2018-12-17T09:22:16.312Z,7.13
2018-12-17T09:24:46.019Z,6.83
2018-12-17T09:27:14.787Z,6.97
2018-12-17T09:29:43.688Z,7.53
2018-12-17T09:32:12.354Z,6.70
2018-12-17T09:34:41.536Z,6.60
2018-12-17T09:37:10.561Z,6.73
2018-12-17T09:39:39.576Z,5.90
2018-12-17T09:42:08.681Z,7.57
2018-12-17T09:44:37.708Z,6.43
2018-12-17T09:47:06.772Z,5.60
2018-12-17T09:49:35.751Z,6.63
2018-12-17T09:52:04.744Z,7.13
2018-12-17T09:54:33.696Z,6.47
2018-12-17T09:57:02.624Z,7.83
2018-12-17T09:59:31.587Z,6.83
2018-12-17T10:02:00.556Z,7.53
2018-12-17T10:04:29.542Z,6.17
2018-12-17T10:06:58.785Z,6.70
2018-12-17T10:09:27.775Z,6.67
2018-12-17T10:11:56.786Z,6.60
2018-12-17T10:14:25.823Z,6.50
2018-12-17T10:16:54.870Z,6.57
2018-12-17T10:19:23.919Z,6.47
2018-12-17T10:21:52.580Z,6.07
2018-12-17T10:24:21.501Z,5.67
2018-12-17T10:26:50.534Z,6.27
2018-12-17T10:29:19.219Z,5.50
2018-12-17T10:31:48.732Z,6.17
2018-12-17T10:34:17.705Z,6.00
2018-12-17T10:36:46.663Z,5.40
2018-12-17T10:39:15.294Z,5.23
2018-12-17T10:41:44.228Z,5.97
2018-12-17T10:44:13.309Z,6.50
2018-12-17T10:46:42.296Z,6.53
2018-12-17T10:49:11.312Z,6.43
2018-12-17T10:51:40.533Z,6.20
2018-12-17T10:54:09.577Z,6.40
2018-12-17T10:56:38.635Z,5.60
2018-12-17T10:59:07.600Z,5.70
2018-12-17T11:02:44.720Z,6.03
2018-12-17T11:05:16.581Z,6.27
2018-12-17T11:07:45.560Z,5.57
2018-12-17T11:10:14.283Z,5.47
2018-12-17T11:12:43.186Z,6.27
2018-12-17T11:15:11.788Z,5.83
2018-12-17T11:17:40.668Z,6.13
2018-12-17T11:20:10.721Z,6.37
2018-12-17T11:22:40.036Z,6.13
2018-12-17T11:25:09.276Z,5.20
2018-12-17T11:27:38.283Z,5.70
2018-12-17T11:30:08.617Z,5.50
2018-12-17T11:32:39.238Z,6.00
2018-12-17T11:35:07.930Z,6.57
2018-12-17T11:37:36.813Z,5.57
2018-12-17T11:40:06.099Z,5.17
2018-12-17T11:42:35.097Z,5.17
2018-12-17T11:45:04.756Z,5.70
2018-12-17T11:47:33.732Z,5.50
2018-12-17T11:50:02.728Z,5.77
2018-12-17T11:52:31.720Z,6.03
2018-12-17T11:55:00.698Z,6.10
2018-12-17T11:58:10.114Z,5.90
2018-12-17T12:00:41.524Z,6.50
2018-12-17T12:03:10.796Z,5.40
2018-12-17T12:05:39.851Z,5.93
2018-12-17T12:08:08.615Z,5.53
2018-12-17T12:10:37.188Z,6.67
2018-12-17T12:13:05.812Z,5.57
2018-12-17T12:15:34.685Z,4.83
2018-12-17T12:18:03.809Z,5.17
2018-12-17T12:20:32.808Z,4.77
2018-12-17T12:23:01.973Z,5.30
2018-12-17T12:25:30.937Z,4.67
2018-12-17T12:27:59.979Z,4.60
2018-12-17T12:30:28.991Z,4.90
2018-12-17T12:32:58.001Z,4.80
2018-12-17T12:35:27.141Z,4.60
2018-12-17T12:37:56.123Z,4.70
2018-12-17T12:40:24.790Z,4.87
2018-12-17T12:42:53.713Z,4.73
2018-12-17T12:45:22.411Z,5.57
2018-12-17T12:47:51.416Z,4.70
2018-12-17T12:50:20.624Z,4.60
2018-12-17T12:52:49.632Z,5.27
2018-12-17T12:55:18.619Z,4.33
2018-12-17T12:57:47.467Z,4.00
2018-12-17T13:00:16.649Z,4.03
2018-12-17T13:02:45.709Z,3.57
2018-12-17T13:05:14.398Z,4.33
2018-12-17T13:07:43.321Z,3.50
2018-12-17T13:10:13.320Z,4.17
2018-12-17T13:12:42.556Z,3.90
2018-12-17T13:15:11.625Z,4.03
2018-12-17T13:17:40.624Z,4.30
2018-12-17T13:20:10.934Z,3.77
2018-12-17T13:22:39.910Z,3.97
2018-12-17T13:25:13.147Z,4.23
2018-12-17T13:27:42.161Z,4.33
2018-12-17T13:30:11.270Z,3.90
2018-12-17T13:32:40.252Z,4.57
2018-12-17T13:35:09.714Z,4.57
2018-12-17T13:37:38.691Z,4.70
2018-12-17T13:40:09.899Z,4.50
2018-12-17T13:42:38.880Z,4.50
2018-12-17T13:45:08.115Z,4.93
2018-12-17T13:47:36.887Z,5.03
2018-12-17T13:50:39.531Z,4.80
2018-12-17T13:53:13.711Z,4.50
2018-12-17T13:55:42.633Z,4.60
2018-12-17T13:58:12.278Z,4.77
2018-12-17T14:00:41.452Z,4.50
2018-12-17T14:03:10.123Z,5.37
2018-12-17T14:05:39.327Z,5.13
2018-12-17T14:08:07.996Z,4.83
2018-12-17T14:10:55.462Z,5.07
2018-12-17T14:13:24.768Z,5.90
2018-12-17T14:15:57.928Z,5.57
2018-12-17T14:18:32.307Z,5.20
2018-12-17T14:21:06.720Z,5.00
2018-12-17T14:23:35.737Z,5.40
2018-12-17T14:26:04.843Z,4.90
2018-12-17T14:28:33.520Z,5.67
2018-12-17T14:31:02.466Z,6.70
2018-12-17T14:33:32.289Z,5.57
2018-12-17T14:36:06.680Z,5.63
2018-12-17T14:38:35.993Z,5.00
2018-12-17T14:41:05.548Z,5.40
2018-12-17T14:43:34.447Z,4.93
2018-12-17T14:46:03.531Z,4.90
2018-12-17T14:48:32.522Z,5.30
2018-12-17T14:51:01.527Z,6.63
2018-12-17T14:53:30.507Z,5.07
2018-12-17T14:55:59.204Z,6.13
2018-12-17T14:58:28.080Z,5.27
2018-12-17T15:01:00.074Z,8.00
2018-12-17T15:03:29.107Z,5.63
2018-12-17T15:05:58.089Z,6.60
2018-12-17T15:08:27.043Z,4.60
2018-12-17T15:10:56.351Z,4.97
2018-12-17T15:13:25.331Z,5.00
2018-12-17T15:15:54.400Z,4.83
2018-12-17T15:18:23.384Z,4.20
2018-12-17T15:20:52.048Z,5.03
2018-12-17T15:23:20.934Z,4.50
2018-12-17T15:25:49.608Z,4.60
2018-12-17T15:28:18.604Z,4.27
2018-12-17T15:30:47.285Z,4.03
2018-12-17T15:33:16.144Z,4.00
2018-12-17T15:35:44.839Z,3.77
2018-12-17T15:38:14.027Z,4.43
2018-12-17T15:40:43.017Z,4.47
2018-12-17T15:43:12.035Z,4.73
2018-12-17T15:45:41.204Z,4.43
2018-12-17T15:48:09.862Z,4.10
2018-12-17T15:50:38.789Z,4.73
2018-12-17T15:53:07.799Z,4.50
2018-12-17T15:55:36.487Z,4.37
2018-12-17T15:58:05.040Z,4.77
2018-12-17T16:00:33.949Z,3.90
2018-12-17T16:03:03.081Z,4.80
2018-12-17T16:05:32.793Z,4.03
2018-12-17T16:08:01.783Z,4.33
2018-12-17T16:10:31.143Z,4.33
2018-12-17T16:13:00.131Z,4.20
2018-12-17T16:15:29.103Z,4.23
2018-12-17T16:17:58.125Z,3.77
2018-12-17T16:20:27.140Z,3.43
2018-12-17T16:22:55.803Z,4.20
2018-12-17T16:25:24.356Z,3.77
2018-12-17T16:27:53.027Z,4.57
2018-12-17T16:30:21.892Z,4.50
2018-12-17T16:33:01.932Z,4.30
2018-12-17T16:35:31.014Z,4.53
2018-12-17T16:38:01.214Z,4.83
2018-12-17T16:40:30.927Z,3.83
2018-12-17T16:42:59.821Z,4.27
2018-12-17T16:45:28.495Z,4.20
2018-12-17T16:47:57.089Z,4.27
2018-12-17T16:50:26.437Z,4.17
2018-12-17T16:52:56.256Z,4.17
2018-12-17T16:55:26.333Z,4.63
2018-12-17T16:57:55.305Z,4.20
2018-12-17T17:00:24.373Z,3.90
2018-12-17T17:05:14.671Z,4.40
2018-12-17T17:07:43.622Z,4.07
2018-12-17T17:10:12.581Z,3.57
2018-12-17T17:12:42.491Z,4.70
2018-12-17T17:15:15.996Z,4.57
2018-12-17T17:17:45.322Z,3.50
2018-12-17T17:20:13.976Z,4.60
2018-12-17T17:22:42.888Z,4.10
2018-12-17T17:25:12.247Z,4.40
2018-12-17T17:27:41.284Z,4.50
2018-12-17T17:30:11.694Z,4.30
2018-12-17T17:32:40.296Z,4.20
2018-12-17T17:35:09.245Z,4.27
2018-12-17T17:37:38.820Z,4.30
2018-12-17T17:40:07.943Z,3.80
2018-12-17T17:42:36.903Z,3.80
2018-12-17T17:45:06.203Z,4.60
2018-12-17T17:47:34.893Z,4.17
2018-12-17T17:50:05.085Z,5.80
2018-12-17T17:52:34.297Z,4.60
2018-12-17T17:55:03.101Z,4.53
2018-12-17T17:57:32.064Z,4.23
2018-12-17T18:00:01.128Z,4.80
2018-12-17T18:02:30.205Z,4.43
2018-12-17T18:04:59.147Z,4.30
2018-12-17T18:07:28.050Z,5.10
2018-12-17T18:09:56.704Z,3.57
2018-12-17T18:12:25.553Z,4.30
2018-12-17T18:14:54.151Z,4.77
2018-12-17T18:17:23.116Z,5.20
2018-12-17T18:19:51.779Z,4.17
2018-12-17T18:22:20.740Z,4.53
2018-12-17T18:24:49.700Z,4.83
2018-12-17T18:27:18.732Z,4.50
2018-12-17T18:29:47.409Z,4.47
2018-12-17T18:32:16.307Z,6.03
2018-12-17T18:34:45.314Z,6.53
2018-12-17T18:37:14.344Z,5.60
2018-12-17T18:39:43.354Z,7.23
2018-12-17T18:42:12.357Z,6.73
2018-12-17T18:44:41.839Z,7.17
2018-12-17T18:47:10.629Z,7.43
2018-12-17T18:49:39.258Z,7.47
2018-12-17T18:52:08.156Z,7.57
2018-12-17T18:54:36.990Z,7.43
2018-12-17T18:57:05.569Z,9.13
2018-12-17T18:59:34.524Z,7.87
2018-12-17T19:02:03.228Z,8.43
2018-12-17T19:04:32.250Z,9.00
2018-12-17T19:07:00.927Z,8.27
2018-12-17T19:09:29.580Z,8.73
2018-12-17T19:11:58.223Z,9.13
2018-12-17T19:14:27.189Z,9.10
2018-12-17T19:16:55.991Z,10.57
2018-12-17T19:19:25.333Z,10.30
2018-12-17T19:21:54.053Z,9.00
2018-12-17T19:24:23.666Z,9.30
2018-12-17T19:26:52.563Z,10.17
2018-12-17T19:29:21.256Z,9.20
2018-12-17T19:31:50.257Z,10.40
2018-12-17T19:34:18.955Z,9.50
2018-12-17T19:36:47.884Z,9.83
2018-12-17T19:39:16.600Z,10.50
2018-12-17T19:41:45.557Z,11.60
2018-12-17T19:44:14.251Z,12.03
2018-12-17T19:46:42.836Z,10.77
2018-12-17T19:49:11.503Z,10.63
2018-12-17T19:51:40.123Z,11.57
2018-12-17T19:54:08.720Z,10.57
2018-12-17T19:56:37.663Z,10.87
2018-12-17T19:59:06.870Z,10.50
2018-12-17T20:01:35.548Z,10.50
2018-12-17T20:04:04.202Z,9.73
2018-12-17T20:06:33.158Z,10.87
2018-12-17T20:09:02.531Z,12.53
2018-12-17T20:11:31.214Z,12.97
2018-12-17T20:13:59.838Z,12.17
2018-12-17T20:16:28.741Z,12.00
2018-12-17T20:18:57.836Z,11.37
2018-12-17T20:21:26.413Z,11.83
2018-12-17T20:23:55.093Z,11.77
2018-12-17T20:26:24.091Z,11.27
2018-12-17T20:28:53.016Z,11.07
2018-12-17T20:31:21.613Z,12.07
2018-12-17T20:33:50.221Z,11.00
2018-12-17T20:36:18.837Z,10.83
2018-12-17T20:38:47.472Z,11.27
2018-12-17T20:41:16.143Z,12.57
2018-12-17T20:43:45.072Z,12.87
2018-12-17T20:46:17.190Z,10.70
2018-12-17T20:48:47.386Z,11.93
2018-12-17T20:51:17.892Z,12.47
2018-12-17T20:53:46.789Z,11.90
2018-12-17T20:56:15.772Z,12.33
2018-12-17T20:58:44.746Z,11.57
2018-12-17T21:01:14.054Z,13.07
2018-12-17T21:03:43.068Z,12.33
2018-12-17T21:06:12.059Z,11.30
2018-12-17T21:08:41.084Z,11.90
2018-12-17T21:11:10.163Z,11.33
2018-12-17T21:13:39.107Z,11.20
2018-12-17T21:16:07.792Z,11.23
2018-12-17T21:18:36.751Z,12.07
2018-12-17T21:21:05.728Z,11.60
2018-12-17T21:23:35.056Z,11.73
2018-12-17T21:26:04.019Z,12.53
2018-12-17T21:28:32.806Z,11.63
2018-12-17T21:31:01.496Z,12.03
2018-12-17T21:33:30.159Z,12.87
2018-12-17T21:35:58.727Z,13.30
2018-12-17T21:38:27.633Z,10.63
2018-12-17T21:40:56.934Z,10.90
2018-12-17T21:43:25.947Z,10.90
2018-12-17T21:45:54.912Z,11.10
2018-12-17T21:48:23.617Z,10.97
2018-12-17T21:50:52.223Z,11.77
2018-12-17T21:53:21.149Z,11.03
2018-12-17T21:55:50.143Z,10.00
2018-12-17T21:58:19.152Z,10.50
2018-12-17T22:00:48.163Z,9.87
2018-12-17T22:03:17.153Z,9.93
2018-12-17T22:05:46.144Z,9.70
2018-12-17T22:08:15.134Z,9.90
2018-12-17T22:10:44.152Z,11.73
2018-12-17T22:13:13.420Z,10.27
2018-12-17T22:15:42.465Z,10.07
2018-12-17T22:18:11.482Z,9.27
2018-12-17T22:20:40.470Z,10.43
2018-12-17T22:23:09.147Z,9.93
2018-12-17T22:25:38.328Z,8.60
2018-12-17T22:28:07.421Z,9.67
2018-12-17T22:30:36.434Z,9.73
2018-12-17T22:33:05.393Z,9.10
2018-12-17T22:35:34.325Z,8.33
2018-12-17T22:38:03.390Z,8.67
2018-12-17T22:40:32.073Z,9.17
2018-12-17T22:43:01.293Z,8.90
2018-12-17T22:45:30.615Z,8.80
2018-12-17T22:48:00.018Z,8.20
2018-12-17T22:50:29.012Z,7.80
2018-12-17T22:52:57.681Z,8.27
2018-12-17T22:55:26.590Z,8.73
2018-12-17T22:57:56.036Z,8.50
2018-12-17T23:00:25.588Z,7.87
2018-12-17T23:02:54.611Z,7.93
2018-12-17T23:05:23.699Z,7.67
2018-12-17T23:07:52.928Z,7.87
2018-12-17T23:10:37.592Z,8.13
2018-12-17T23:13:11.974Z,8.37
2018-12-17T23:15:46.191Z,8.50
2018-12-17T23:18:14.568Z,6.90
2018-12-17T23:20:43.331Z,8.60
2018-12-17T23:23:12.240Z,7.63
2018-12-17T23:25:41.252Z,7.53
2018-12-17T23:28:09.836Z,7.67
2018-12-17T23:30:39.554Z,7.53
2018-12-17T23:33:08.599Z,8.33
2018-12-17T23:35:37.622Z,9.60
2018-12-17T23:38:07.062Z,8.57
2018-12-17T23:40:36.096Z,8.90
2018-12-17T23:43:05.389Z,8.13
2018-12-17T23:45:34.402Z,7.73
2018-12-17T23:48:02.964Z,7.10
2018-12-17T23:50:31.569Z,7.43
2018-12-17T23:53:00.768Z,6.57
2018-12-17T23:55:29.760Z,6.43
2018-12-17T23:57:58.764Z,6.80
